Time;durP1;ratioP1;P1;durP2;ratioP2;P2;SDS_P1;SDS_P2;PMS_P1;PMS_P2;Temp;Humidity;BMP_temperature;BMP_pressure;BME280_temperature;BME280_humidity;BME280_pressure;Samples;Min_cycle;Max_cycle;Signal;HPM_P1;HPM_P2
2022/12/08 00:01:43;;;;;;;2.92;0.90;;;2.60;99.90;;;;;;5101390;27;20054;-84
2022/12/08 00:04:09;;;;;;;1.90;0.82;;;4.10;99.90;;;;;;5124687;27;20530;-83
2022/12/08 00:09:36;;;;;;;3.53;1.00;;;2.70;99.90;;;;;;5125100;27;20173;-84
2022/12/08 00:12:05;;;;;;;6.00;1.25;;;2.70;99.90;;;;;;5098970;28;20104;-83
2022/12/08 00:14:42;;;;;;;5.43;1.10;;;2.70;99.90;;;;;;5114212;27;20479;-83
2022/12/08 00:17:10;;;;;;;3.88;1.30;;;2.70;99.90;;;;;;5120189;27;20088;-84
2022/12/08 00:19:38;;;;;;;4.43;1.20;;;2.70;99.90;;;;;;5109113;27;20160;-84
2022/12/08 00:22:05;;;;;;;4.13;1.13;;;2.70;99.90;;;;;;5095793;27;20046;-83
2022/12/08 00:24:34;;;;;;;6.82;1.35;;;2.70;99.90;;;;;;5103786;27;20035;-82
2022/12/08 00:27:00;;;;;;;3.85;1.52;;;2.70;99.90;;;;;;5106630;28;20042;-82
2022/12/08 00:29:26;;;;;;;3.17;1.17;;;2.70;99.90;;;;;;5117511;27;20073;-82
2022/12/08 00:31:53;;;;;;;4.72;1.10;;;2.70;99.90;;;;;;5120745;27;20170;-84
2022/12/08 00:34:19;;;;;;;6.07;1.70;;;2.70;99.90;;;;;;5112952;27;20509;-84
2022/12/08 00:36:45;;;;;;;5.10;1.02;;;2.70;99.90;;;;;;5127358;27;20055;-84
2022/12/08 00:39:12;;;;;;;5.32;1.40;;;2.70;99.90;;;;;;5108014;28;20112;-84
2022/12/08 00:44:25;;;;;;;4.53;1.42;;;2.70;99.90;;;;;;5104688;27;20039;-84
2022/12/08 00:46:51;;;;;;;3.93;1.10;;;2.60;99.90;;;;;;5125994;27;20043;-84
2022/12/08 00:49:17;;;;;;;4.03;0.77;;;2.60;99.90;;;;;;5123410;27;20367;-85
2022/12/08 00:51:43;;;;;;;1.30;0.95;;;2.60;99.90;;;;;;5126851;27;20308;-84
2022/12/08 00:54:10;;;;;;;2.75;1.00;;;2.60;99.90;;;;;;5121646;27;20535;-83
2022/12/08 00:56:36;;;;;;;3.40;0.90;;;2.60;99.90;;;;;;5120219;27;20091;-84
2022/12/08 00:59:03;;;;;;;1.65;0.80;;;2.60;99.90;;;;;;5115377;27;20049;-84
2022/12/08 01:01:29;;;;;;;2.85;1.02;;;4.00;99.90;;;;;;5121017;27;20035;-84
2022/12/08 01:03:55;;;;;;;3.78;1.02;;;2.60;99.90;;;;;;5122175;27;20031;-84
2022/12/08 01:06:21;;;;;;;2.30;1.10;;;2.60;99.90;;;;;;5089502;27;20057;-83
2022/12/08 01:08:47;;;;;;;3.53;1.00;;;2.60;99.90;;;;;;5123399;27;20372;-82
2022/12/08 01:11:16;;;;;;;5.85;1.00;;;2.60;99.90;;;;;;5088737;27;20122;-83
2022/12/08 01:13:42;;;;;;;2.78;1.00;;;2.60;99.90;;;;;;5105562;27;20043;-83
2022/12/08 01:16:08;;;;;;;;;;;2.60;99.90;;;;;;5119544;27;20093;-83
2022/12/08 01:18:35;;;;;;;6.13;1.17;;;3.00;99.90;;;;;;5110000;27;19919;-83
2022/12/08 01:21:06;;;;;;;5.20;1.10;;;2.60;99.90;;;;;;5103549;27;20556;-83
2022/12/08 01:23:32;;;;;;;2.80;1.10;;;2.60;99.90;;;;;;5104173;27;20509;-82
2022/12/08 01:26:02;;;;;;;3.55;1.08;;;2.60;99.90;;;;;;5115709;27;20430;-82
2022/12/08 01:28:29;;;;;;;1.98;0.95;;;3.60;99.90;;;;;;5114901;27;20074;-82
2022/12/08 01:30:55;;;;;;;5.07;1.05;;;2.60;99.90;;;;;;5119823;27;20046;-82
2022/12/08 01:33:22;;;;;;;1.88;0.90;;;2.60;99.90;;;;;;5102245;27;20047;-83
2022/12/08 01:35:47;;;;;;;4.90;1.00;;;3.40;99.90;;;;;;5099936;28;20058;-83
2022/12/08 01:38:13;;;;;;;3.53;1.03;;;2.60;99.90;;;;;;5077927;27;20040;-83
2022/12/08 01:40:39;;;;;;;3.40;1.10;;;2.60;99.90;;;;;;5105750;28;20287;-82
2022/12/08 01:43:04;;;;;;;3.72;1.23;;;2.70;99.90;;;;;;5100478;27;20036;-83
2022/12/08 01:45:31;;;;;;;4.88;1.15;;;2.60;99.90;;;;;;5098295;28;20043;-83
2022/12/08 01:48:02;;;;;;;2.30;0.93;;;2.60;99.90;;;;;;5121544;27;20043;-83
2022/12/08 01:50:29;;;;;;;4.68;1.35;;;2.60;99.90;;;;;;5124560;27;20452;-83
2022/12/08 01:53:09;;;;;;;2.10;0.95;;;2.90;99.90;;;;;;5101092;28;20050;-83
2022/12/08 01:55:43;;;;;;;3.72;0.95;;;2.60;99.90;;;;;;5100513;28;20083;-84
2022/12/08 01:58:27;;;;;;;1.80;0.88;;;2.60;99.90;;;;;;5103706;28;20031;-84
2022/12/08 02:00:52;;;;;;;2.10;1.00;;;2.50;99.90;;;;;;5098822;27;20406;-82
2022/12/08 02:03:35;;;;;;;4.93;1.25;;;2.50;99.90;;;;;;5104868;28;20072;-84
2022/12/08 02:06:02;;;;;;;3.30;0.82;;;2.80;99.90;;;;;;5105530;28;20035;-82
2022/12/08 02:08:29;;;;;;;4.10;1.20;;;2.50;99.90;;;;;;5122723;28;20054;-82
2022/12/08 02:10:55;;;;;;;1.55;0.90;;;4.00;99.90;;;;;;5119497;28;20047;-83
2022/12/08 02:13:22;;;;;;;2.63;0.97;;;2.50;99.90;;;;;;5119949;28;20487;-83
2022/12/08 02:15:56;;;;;;;2.75;0.80;;;2.50;99.90;;;;;;5102769;28;20123;-83
2022/12/08 02:18:31;;;;;;;2.55;1.10;;;2.50;99.90;;;;;;5102720;28;20032;-83
2022/12/08 02:21:00;;;;;;;1.73;0.60;;;2.50;99.90;;;;;;5090424;28;20036;-83
2022/12/08 02:23:51;;;;;;;0.95;0.68;;;3.20;99.90;;;;;;5098470;28;20317;-83
2022/12/08 02:26:43;;;;;;;2.15;0.75;;;2.50;99.90;;;;;;5096567;28;20370;-83
2022/12/08 02:29:34;;;;;;;7.72;0.82;;;2.50;99.90;;;;;;5098603;28;20043;-82
2022/12/08 02:32:21;;;;;;;1.65;0.73;;;2.50;99.90;;;;;;5120081;28;20054;-82
2022/12/08 02:35:03;;;;;;;2.83;1.00;;;2.50;99.90;;;;;;5102263;28;20035;-82
2022/12/08 02:37:36;;;;;;;1.58;0.70;;;2.60;99.90;;;;;;5115275;28;20077;-82
2022/12/08 02:40:09;;;;;;;2.65;0.50;;;2.60;99.90;;;;;;5100249;28;20063;-82
2022/12/08 02:42:42;;;;;;;1.58;0.40;;;2.60;99.90;;;;;;5118820;27;20031;-83
2022/12/08 02:45:23;;;;;;;3.20;0.40;;;2.60;99.90;;;;;;5123516;27;20043;-82
2022/12/08 02:47:49;;;;;;;0.40;0.40;;;3.40;99.90;;;;;;5121053;27;21489;-83
2022/12/08 02:50:15;;;;;;;0.43;0.40;;;2.50;99.90;;;;;;5102011;27;20427;-83
2022/12/08 02:52:45;;;;;;;1.00;0.40;;;3.70;99.90;;;;;;5109588;28;20185;-84
2022/12/08 02:55:43;;;;;;;1.17;0.32;;;2.60;99.90;;;;;;5106984;27;20039;-84
2022/12/08 02:58:27;;;;;;;1.77;0.50;;;2.60;99.90;;;;;;5117600;27;20046;-84
2022/12/08 03:01:14;;;;;;;2.75;0.60;;;2.70;99.90;;;;;;5123518;27;20036;-83
2022/12/08 03:03:46;;;;;;;3.35;0.40;;;2.60;99.90;;;;;;5123275;27;20035;-83
2022/12/08 03:06:14;;;;;;;0.57;0.50;;;2.60;99.90;;;;;;5115983;27;20047;-84
2022/12/08 03:08:56;;;;;;;1.63;0.40;;;2.50;99.90;;;;;;5120186;27;20039;-84
2022/12/08 03:11:29;;;;;;;0.70;0.60;;;2.50;99.90;;;;;;5120626;27;20048;-84
2022/12/08 03:13:59;;;;;;;2.83;0.82;;;2.50;99.90;;;;;;5104895;27;20063;-84
2022/12/08 03:16:29;;;;;;;1.65;0.80;;;2.50;99.90;;;;;;5123131;27;20056;-84
2022/12/08 03:19:18;;;;;;;1.85;0.80;;;2.50;99.90;;;;;;5115292;27;20498;-84
2022/12/08 03:21:50;;;;;;;1.15;0.82;;;2.60;99.90;;;;;;5105687;28;20393;-84
2022/12/08 03:24:18;;;;;;;2.22;1.58;;;2.90;99.90;;;;;;5120390;27;20035;-84
2022/12/08 03:26:57;;;;;;;1.33;0.80;;;2.70;99.90;;;;;;5127343;27;20100;-84
2022/12/08 03:29:23;;;;;;;4.47;0.90;;;2.50;99.90;;;;;;5127413;27;20091;-83
2022/12/08 03:31:56;;;;;;;2.38;0.80;;;2.50;99.90;;;;;;5127102;27;20042;-84
2022/12/08 03:34:26;;;;;;;2.70;0.60;;;2.50;99.90;;;;;;5102805;28;20039;-83
2022/12/08 03:36:52;;;;;;;1.92;0.70;;;2.50;99.90;;;;;;5126096;27;20043;-84
2022/12/08 03:39:18;;;;;;;1.27;0.80;;;2.50;99.90;;;;;;5123088;27;20036;-84
2022/12/08 03:41:45;;;;;;;1.30;0.63;;;2.50;99.90;;;;;;5107336;27;20100;-84
2022/12/08 03:44:11;;;;;;;1.08;0.50;;;2.50;99.90;;;;;;5108014;27;20047;-84
2022/12/08 03:46:36;;;;;;;1.03;0.60;;;2.50;99.90;;;;;;5090375;27;20043;-84
2022/12/08 03:49:02;;;;;;;2.17;0.57;;;2.50;99.90;;;;;;5100907;27;20039;-84
2022/12/08 03:51:28;;;;;;;1.05;0.70;;;2.50;99.90;;;;;;5117363;27;20067;-84
2022/12/08 03:53:54;;;;;;;0.63;0.50;;;2.40;99.90;;;;;;5082291;27;20056;-83
2022/12/08 03:56:31;;;;;;;2.70;0.63;;;2.40;99.90;;;;;;5132402;27;20367;-84
2022/12/08 03:58:58;;;;;;;0.80;0.60;;;2.50;99.90;;;;;;5117780;27;20513;-83
2022/12/08 04:01:24;;;;;;;2.33;0.70;;;2.20;99.90;;;;;;5124322;27;20027;-83
2022/12/08 04:03:50;;;;;;;1.45;0.60;;;2.40;99.90;;;;;;5107421;28;20042;-83
2022/12/08 04:06:17;;;;;;;1.55;0.60;;;2.40;99.90;;;;;;5122353;27;20043;-83
2022/12/08 04:08:42;;;;;;;;;;;2.70;99.90;;;;;;5122330;27;20035;-83
2022/12/08 04:11:08;;;;;;;1.65;0.63;;;3.60;99.90;;;;;;5113505;27;20331;-83
2022/12/08 04:13:38;;;;;;;1.60;0.63;;;2.40;99.90;;;;;;5116190;27;20031;-83
2022/12/08 04:16:04;;;;;;;0.90;0.60;;;2.40;99.90;;;;;;5122951;27;20084;-84
2022/12/08 04:18:31;;;;;;;1.25;0.77;;;2.40;99.90;;;;;;5103974;27;20034;-83
2022/12/08 04:20:56;;;;;;;;;;;2.40;99.90;;;;;;5106420;27;20439;-83
2022/12/08 04:23:22;;;;;;;1.40;0.68;;;2.40;99.90;;;;;;5104089;27;19922;-83
2022/12/08 04:25:49;;;;;;;1.38;0.60;;;3.50;99.90;;;;;;5106686;27;20039;-84
2022/12/08 04:28:15;;;;;;;1.00;0.73;;;3.50;99.90;;;;;;5113963;27;20047;-83
2022/12/08 04:30:41;;;;;;;3.13;0.70;;;2.60;99.90;;;;;;5106328;27;20100;-82
2022/12/08 04:33:06;;;;;;;0.90;0.50;;;2.70;99.90;;;;;;5126479;27;20367;-83
2022/12/08 04:35:32;;;;;;;1.57;0.70;;;2.40;99.90;;;;;;5123749;27;20039;-83
2022/12/08 04:37:58;;;;;;;0.87;0.43;;;2.40;99.90;;;;;;5105580;28;20281;-83
2022/12/08 04:40:23;;;;;;;2.47;0.60;;;2.40;99.90;;;;;;5104585;27;20063;-83
2022/12/08 04:42:49;;;;;;;0.77;0.47;;;2.40;99.90;;;;;;5124933;27;20046;-83
2022/12/08 04:45:15;;;;;;;0.50;0.50;;;2.40;99.90;;;;;;5118777;27;20083;-83
2022/12/08 04:47:42;;;;;;;0.60;0.50;;;2.40;99.90;;;;;;5101604;27;20035;-84
2022/12/08 04:50:08;;;;;;;1.75;0.52;;;2.50;99.90;;;;;;5118514;27;20044;-84
2022/12/08 04:52:34;;;;;;;0.73;0.47;;;2.40;99.90;;;;;;5106815;27;20035;-84
2022/12/08 04:54:59;;;;;;;1.27;0.60;;;2.40;99.90;;;;;;5098597;27;20448;-84
2022/12/08 04:57:25;;;;;;;1.95;0.47;;;2.30;99.90;;;;;;5108279;28;20032;-83
2022/12/08 04:59:51;;;;;;;0.93;0.40;;;2.30;99.90;;;;;;5098210;28;20044;-83
2022/12/08 05:02:16;;;;;;;1.70;0.97;;;2.30;99.90;;;;;;5102801;27;20062;-82
2022/12/08 05:04:42;;;;;;;2.37;0.60;;;2.30;99.90;;;;;;5075824;28;20274;-83
2022/12/08 05:07:08;;;;;;;1.03;0.50;;;2.70;99.90;;;;;;5117540;27;20027;-84
2022/12/08 05:09:33;;;;;;;1.90;0.68;;;2.30;99.90;;;;;;5096587;28;20032;-83
2022/12/08 05:11:59;;;;;;;1.20;0.53;;;2.20;99.90;;;;;;5123186;27;20043;-84
2022/12/08 05:14:25;;;;;;;3.70;0.40;;;2.20;99.90;;;;;;5088667;27;20796;-84
2022/12/08 05:16:50;;;;;;;1.35;0.60;;;2.20;99.90;;;;;;5097939;28;20445;-84
2022/12/08 05:19:17;;;;;;;1.43;0.53;;;2.20;99.90;;;;;;5097652;27;20032;-87
2022/12/08 05:21:43;;;;;;;2.75;0.60;;;3.10;99.90;;;;;;5102477;28;20391;-85
2022/12/08 05:24:09;;;;;;;2.88;0.60;;;2.30;99.90;;;;;;5115506;27;20038;-84
2022/12/08 05:26:35;;;;;;;1.95;0.40;;;3.10;99.90;;;;;;5124245;27;20046;-86
2022/12/08 05:29:00;;;;;;;2.28;0.50;;;2.20;99.90;;;;;;5089650;27;20503;-85
2022/12/08 05:31:26;;;;;;;1.08;0.57;;;2.60;99.90;;;;;;5106077;28;20100;-84
2022/12/08 05:33:52;;;;;;;4.50;0.70;;;2.20;99.90;;;;;;5079058;28;20035;-84
2022/12/08 05:36:19;;;;;;;0.60;0.40;;;2.30;99.90;;;;;;5111941;27;20517;-83
2022/12/08 05:38:46;;;;;;;1.45;0.80;;;2.30;99.90;;;;;;5106379;27;20454;-84
2022/12/08 05:41:19;;;;;;;2.15;0.50;;;3.70;99.90;;;;;;5062207;27;20048;-83
2022/12/08 05:43:46;;;;;;;2.15;0.57;;;3.70;99.90;;;;;;5117239;27;20421;-83
2022/12/08 05:46:12;;;;;;;;;;;2.70;99.90;;;;;;5106289;27;20047;-83
2022/12/08 05:48:38;;;;;;;1.00;0.60;;;2.20;99.90;;;;;;5128457;27;19921;-83
2022/12/08 05:51:06;;;;;;;1.13;0.60;;;2.10;99.90;;;;;;5098164;28;20414;-84
2022/12/08 05:53:31;;;;;;;0.93;0.63;;;2.20;99.90;;;;;;5125110;27;20082;-84
2022/12/08 05:55:57;;;;;;;1.30;0.52;;;2.80;99.90;;;;;;5073705;28;20067;-78
2022/12/08 05:58:23;;;;;;;0.75;0.50;;;2.10;99.90;;;;;;5114857;28;20035;-81
2022/12/08 06:00:50;;;;;;;1.40;0.50;;;2.50;99.90;;;;;;5100166;28;20133;-78
2022/12/08 06:03:17;;;;;;;1.40;0.43;;;2.00;99.90;;;;;;5112377;28;20047;-80
2022/12/08 06:05:45;;;;;;;2.58;0.60;;;2.00;99.90;;;;;;5101249;28;20070;-80
2022/12/08 06:08:11;;;;;;;1.20;0.60;;;1.90;99.90;;;;;;5122204;28;20047;-80
2022/12/08 06:10:42;;;;;;;2.67;0.90;;;2.00;99.90;;;;;;5123079;28;20454;-80
2022/12/08 06:13:08;;;;;;;1.23;0.63;;;1.90;99.90;;;;;;5097259;28;20048;-80
2022/12/08 06:15:37;;;;;;;1.15;0.70;;;1.90;99.90;;;;;;5118709;28;20077;-80
2022/12/08 06:18:04;;;;;;;1.10;0.77;;;1.90;99.90;;;;;;5124872;27;20114;-80
2022/12/08 06:20:29;;;;;;;;;;;1.90;99.90;;;;;;5107538;27;20129;-80
2022/12/08 06:22:56;;;;;;;1.55;0.70;;;1.90;99.90;;;;;;5105186;27;19923;-79
2022/12/08 06:25:22;;;;;;;3.20;0.68;;;1.90;99.90;;;;;;5123864;27;20039;-79
2022/12/08 06:27:48;;;;;;;1.85;0.57;;;1.90;99.90;;;;;;5103909;27;20054;-81
2022/12/08 06:30:14;;;;;;;0.57;0.50;;;1.90;99.90;;;;;;5103769;28;20031;-80
2022/12/08 06:32:40;;;;;;;1.63;0.70;;;1.90;99.90;;;;;;5106126;27;20039;-80
2022/12/08 06:35:06;;;;;;;0.60;0.50;;;1.90;99.90;;;;;;5120277;27;20543;-80
2022/12/08 06:37:32;;;;;;;0.70;0.70;;;1.90;99.90;;;;;;5124018;27;20289;-80
2022/12/08 06:39:57;;;;;;;0.90;0.50;;;1.90;99.90;;;;;;5122373;27;20031;-80
2022/12/08 06:45:08;;;;;;;1.38;0.52;;;1.90;99.90;;;;;;5120181;27;20486;-80
2022/12/08 06:47:34;;;;;;;0.85;0.50;;;1.90;99.90;;;;;;5118916;27;20035;-80
2022/12/08 06:50:00;;;;;;;1.50;0.60;;;1.80;99.90;;;;;;5124333;27;20114;-81
2022/12/08 06:52:25;;;;;;;1.38;0.60;;;1.80;99.90;;;;;;5103646;27;20081;-80
2022/12/08 06:54:51;;;;;;;0.77;0.60;;;1.80;99.90;;;;;;5123645;27;20118;-80
2022/12/08 06:57:17;;;;;;;1.37;0.80;;;2.70;99.90;;;;;;5122478;27;20781;-80
2022/12/08 06:59:43;;;;;;;0.60;0.60;;;2.20;99.90;;;;;;5105409;27;20548;-80
2022/12/08 07:02:10;;;;;;;0.95;0.80;;;1.60;99.90;;;;;;5123354;27;20031;-80
2022/12/08 07:04:35;;;;;;;0.70;0.50;;;2.90;99.90;;;;;;5120832;27;20483;-81
2022/12/08 07:07:01;;;;;;;1.67;0.70;;;1.60;99.90;;;;;;5122555;27;20103;-80
2022/12/08 07:09:28;;;;;;;0.75;0.50;;;1.50;99.90;;;;;;5121818;27;20040;-80
2022/12/08 07:11:53;;;;;;;0.82;0.70;;;1.50;99.90;;;;;;5106429;27;20051;-80
2022/12/08 07:14:23;;;;;;;3.25;0.77;;;2.00;99.90;;;;;;5090927;27;20043;-80
2022/12/08 07:16:52;;;;;;;0.95;0.75;;;1.50;99.90;;;;;;5104873;27;20035;-80
2022/12/08 07:19:18;;;;;;;0.77;0.68;;;1.40;99.90;;;;;;5122336;27;20172;-80
2022/12/08 07:21:44;;;;;;;2.17;0.70;;;1.40;99.90;;;;;;5120199;27;20039;-80
2022/12/08 07:24:10;;;;;;;2.30;0.52;;;1.50;99.90;;;;;;5103977;27;20046;-80
2022/12/08 07:26:36;;;;;;;5.00;1.10;;;1.70;99.90;;;;;;5123017;27;20039;-80
2022/12/08 07:29:02;;;;;;;2.13;1.50;;;1.30;99.90;;;;;;5098584;27;20039;-80
2022/12/08 07:31:28;;;;;;;2.58;1.00;;;1.30;99.90;;;;;;5119939;27;20042;-80
2022/12/08 07:33:55;;;;;;;0.85;0.60;;;1.30;99.90;;;;;;5121433;27;20126;-81
2022/12/08 07:36:22;;;;;;;1.17;0.93;;;1.20;99.90;;;;;;5122135;27;20066;-81
2022/12/08 07:38:49;;;;;;;1.63;1.10;;;1.20;99.90;;;;;;5105058;27;20043;-81
2022/12/08 07:41:17;;;;;;;2.15;1.25;;;1.20;99.90;;;;;;5121711;27;20114;-81
2022/12/08 07:43:43;;;;;;;2.10;0.88;;;1.50;99.90;;;;;;5122380;27;20039;-82
2022/12/08 07:46:13;;;;;;;4.38;1.13;;;1.10;99.90;;;;;;5105406;27;20034;-81
2022/12/08 07:48:39;;;;;;;3.85;1.00;;;1.10;99.90;;;;;;5120315;27;20118;-82
2022/12/08 07:51:05;;;;;;;3.78;1.20;;;1.10;99.90;;;;;;5120000;27;20538;-81
2022/12/08 07:53:31;;;;;;;5.00;1.20;;;1.50;99.90;;;;;;5115451;27;20046;-82
2022/12/08 07:55:58;;;;;;;2.85;1.20;;;1.10;99.90;;;;;;5103924;27;20023;-82
2022/12/08 07:58:24;;;;;;;4.75;1.20;;;1.10;99.90;;;;;;5103718;27;20031;-81
2022/12/08 08:00:51;;;;;;;6.47;1.70;;;1.10;99.90;;;;;;5120195;27;20044;-80
2022/12/08 08:03:17;;;;;;;;;;;1.10;99.90;;;;;;5106863;27;20553;-80
2022/12/08 08:05:43;;;;;;;2.70;1.45;;;1.10;99.90;;;;;;5121566;27;20070;-80
2022/12/08 08:08:10;;;;;;;2.38;1.40;;;1.80;99.90;;;;;;5063163;27;20040;-80
2022/12/08 08:10:42;;;;;;;2.53;1.15;;;1.30;99.90;;;;;;5118950;27;20041;-80
2022/12/08 08:13:09;;;;;;;6.40;1.60;;;1.00;99.90;;;;;;5118686;27;20046;-81
2022/12/08 08:15:35;;;;;;;4.82;1.30;;;1.10;99.90;;;;;;5121221;27;20032;-81
2022/12/08 08:18:01;;;;;;;3.03;1.50;;;1.00;99.90;;;;;;5120519;27;20042;-81
2022/12/08 08:20:26;;;;;;;6.18;1.48;;;2.40;99.90;;;;;;5119365;27;20032;-81
2022/12/08 08:22:52;;;;;;;1.92;1.40;;;1.00;99.90;;;;;;5063273;27;20157;-80
2022/12/08 08:25:21;;;;;;;2.90;1.30;;;1.20;99.90;;;;;;5102858;27;20046;-80
2022/12/08 08:27:48;;;;;;;1.90;1.25;;;1.00;99.90;;;;;;5120027;27;20054;-80
2022/12/08 08:30:14;;;;;;;;;;;1.20;99.90;;;;;;5104685;27;20073;-81
2022/12/08 08:32:40;;;;;;;6.07;1.67;;;1.00;99.90;;;;;;5133974;27;19922;-81
2022/12/08 08:35:06;;;;;;;1.73;1.00;;;1.10;99.90;;;;;;5119280;27;20153;-81
2022/12/08 08:37:31;;;;;;;2.75;1.35;;;1.10;99.90;;;;;;5105074;27;20067;-81
2022/12/08 08:39:57;;;;;;;2.28;1.30;;;1.30;99.90;;;;;;5120994;27;20035;-80
2022/12/08 08:42:23;;;;;;;1.95;1.35;;;1.30;99.90;;;;;;5104034;27;20031;-80
2022/12/08 08:44:48;;;;;;;1.90;1.40;;;1.40;99.90;;;;;;5102855;27;20071;-80
2022/12/08 08:47:14;;;;;;;3.88;0.95;;;1.60;99.90;;;;;;5100677;27;20035;-81
2022/12/08 08:49:41;;;;;;;3.00;1.00;;;2.00;99.90;;;;;;5120832;27;20035;-80
2022/12/08 08:52:07;;;;;;;6.60;1.10;;;2.40;99.90;;;;;;5102207;27;20038;-81
2022/12/08 08:54:33;;;;;;;4.97;1.20;;;2.60;99.90;;;;;;5121462;27;20040;-80
2022/12/08 08:56:59;;;;;;;3.20;1.00;;;2.60;99.90;;;;;;5101941;27;20367;-81
2022/12/08 08:59:25;;;;;;;2.28;1.20;;;2.60;99.90;;;;;;5120192;27;20043;-80
2022/12/08 09:01:52;;;;;;;2.83;1.25;;;2.50;99.90;;;;;;5103067;27;20110;-81
2022/12/08 09:04:18;;;;;;;6.18;1.30;;;2.90;99.90;;;;;;5121075;27;20035;-80
2022/12/08 09:06:44;;;;;;;3.90;1.13;;;2.40;99.90;;;;;;5121499;27;20399;-80
2022/12/08 09:09:10;;;;;;;4.53;1.10;;;3.40;99.90;;;;;;5103776;27;20042;-80
2022/12/08 09:11:37;;;;;;;6.05;2.03;;;2.70;99.90;;;;;;5121216;27;20035;-80
2022/12/08 09:14:03;;;;;;;4.13;1.40;;;2.70;99.90;;;;;;5118287;27;20122;-80
2022/12/08 09:16:28;;;;;;;2.60;1.00;;;3.40;99.90;;;;;;5102606;28;20043;-81
2022/12/08 09:18:54;;;;;;;6.83;1.30;;;4.20;99.90;;;;;;5104898;27;20122;-80
2022/12/08 09:21:22;;;;;;;2.22;1.13;;;4.80;99.90;;;;;;5118497;27;20276;-80
2022/12/08 09:23:53;;;;;;;2.30;1.10;;;5.10;99.90;;;;;;5120126;27;20036;-81
2022/12/08 09:26:21;;;;;;;2.83;1.33;;;5.10;99.90;;;;;;5120110;27;20127;-80
2022/12/08 09:28:50;;;;;;;5.45;1.30;;;5.20;99.90;;;;;;5103641;27;20123;-81
2022/12/08 09:31:17;;;;;;;3.95;1.25;;;5.40;99.90;;;;;;5120302;27;20471;-80
2022/12/08 09:33:43;;;;;;;9.55;1.30;;;5.30;99.90;;;;;;5119720;27;20069;-80
2022/12/08 09:36:09;;;;;;;4.20;1.20;;;4.90;99.90;;;;;;5115177;27;20577;-80
2022/12/08 09:38:36;;;;;;;1.83;1.00;;;4.70;99.90;;;;;;5117889;27;20505;-80
2022/12/08 09:41:03;;;;;;;;;;;4.40;99.90;;;;;;5119292;27;20039;-80
2022/12/08 09:43:50;;;;;;;4.43;1.20;;;4.20;99.90;;;;;;5100395;28;19916;-80
2022/12/08 09:46:18;;;;;;;5.72;1.23;;;4.00;99.90;;;;;;5115325;27;20050;-80
2022/12/08 09:48:54;;;;;;;3.33;1.20;;;3.80;99.90;;;;;;5119731;27;20110;-80
2022/12/08 09:51:23;;;;;;;4.10;1.10;;;3.60;99.90;;;;;;5112521;27;20031;-80
2022/12/08 09:54:02;;;;;;;4.35;1.33;;;3.60;99.90;;;;;;5115763;27;20043;-80
2022/12/08 09:56:32;;;;;;;2.35;1.02;;;3.60;99.90;;;;;;5115057;27;20433;-80
2022/12/08 09:59:35;;;;;;;4.75;1.50;;;3.70;99.90;;;;;;5119657;28;20057;-80
2022/12/08 10:02:02;;;;;;;4.00;1.30;;;3.70;99.90;;;;;;5117127;28;20132;-80
2022/12/08 10:04:34;;;;;;;2.63;1.48;;;3.70;99.90;;;;;;5118008;28;20075;-80
2022/12/08 10:07:15;;;;;;;3.50;1.08;;;3.60;99.90;;;;;;5120137;27;20495;-81
2022/12/08 10:09:49;;;;;;;3.58;1.02;;;3.60;99.90;;;;;;5117384;28;20057;-80
2022/12/08 10:12:36;;;;;;;3.33;1.05;;;3.70;99.90;;;;;;5117117;28;20043;-80
2022/12/08 10:15:26;;;;;;;2.80;1.00;;;3.70;99.90;;;;;;5099961;28;20046;-80
2022/12/08 10:17:53;;;;;;;4.63;1.52;;;3.70;99.90;;;;;;5119085;28;20047;-80
2022/12/08 10:20:36;;;;;;;3.72;1.33;;;4.70;99.90;;;;;;5112598;28;20126;-80
2022/12/08 10:23:11;;;;;;;2.30;1.20;;;3.80;99.90;;;;;;5115331;28;20045;-80
2022/12/08 10:25:55;;;;;;;2.33;0.90;;;3.70;99.90;;;;;;5119256;28;20043;-79
2022/12/08 10:28:21;;;;;;;1.95;0.82;;;3.70;99.90;;;;;;5099771;28;20035;-80
2022/12/08 10:30:46;;;;;;;2.93;0.90;;;3.70;99.90;;;;;;5117203;28;20513;-80
2022/12/08 10:33:15;;;;;;;2.83;1.03;;;3.80;99.90;;;;;;5083336;28;20305;-81
2022/12/08 10:35:42;;;;;;;2.25;1.25;;;4.00;99.90;;;;;;5121084;28;20062;-81
2022/12/08 10:38:25;;;;;;;2.38;0.70;;;4.20;99.90;;;;;;5118527;28;20044;-80
2022/12/08 10:40:55;;;;;;;3.50;1.40;;;4.60;99.90;;;;;;5114074;28;20486;-79
2022/12/08 10:43:24;;;;;;;3.25;1.00;;;4.40;99.90;;;;;;5114563;28;20090;-80
2022/12/08 10:45:50;;;;;;;5.10;0.80;;;4.60;99.90;;;;;;5102967;28;20046;-80
2022/12/08 10:48:25;;;;;;;3.92;0.90;;;4.90;99.90;;;;;;5119705;28;20981;-81
2022/12/08 10:50:58;;;;;;;2.95;0.70;;;5.10;99.90;;;;;;5099470;28;20126;-80
2022/12/08 10:53:32;;;;;;;2.58;0.77;;;5.30;99.90;;;;;;5099466;28;20177;-80
2022/12/08 10:56:01;;;;;;;2.15;0.70;;;5.50;99.90;;;;;;5098067;28;20492;-80
2022/12/08 10:58:34;;;;;;;4.43;1.02;;;6.70;99.90;;;;;;5100749;28;20177;-80
2022/12/08 11:01:25;;;;;;;2.53;0.68;;;5.50;99.90;;;;;;5115779;28;20096;-80
2022/12/08 11:03:55;;;;;;;4.22;0.60;;;5.50;99.90;;;;;;5101651;27;20042;-81
2022/12/08 11:06:41;;;;;;;4.47;0.70;;;5.40;99.90;;;;;;5124086;27;20120;-80
2022/12/08 11:09:16;;;;;;;2.72;0.60;;;5.30;99.90;;;;;;5119695;27;20055;-81
2022/12/08 11:11:59;;;;;;;3.28;1.10;;;5.60;99.90;;;;;;5103292;27;20046;-80
2022/12/08 11:14:43;;;;;;;1.80;0.57;;;5.30;99.90;;;;;;5121327;27;20062;-80
2022/12/08 11:17:17;;;;;;;5.13;0.73;;;5.30;99.90;;;;;;5103362;27;20083;-80
2022/12/08 11:19:53;;;;;;;2.50;0.70;;;5.40;99.90;;;;;;5122826;27;20031;-80
2022/12/08 11:22:36;;;;;;;1.87;0.50;;;5.50;99.90;;;;;;5122413;27;20047;-81
2022/12/08 11:25:18;;;;;;;4.88;0.90;;;5.80;99.90;;;;;;5122214;27;20039;-80
2022/12/08 11:27:50;;;;;;;3.33;1.00;;;6.40;99.90;;;;;;5105489;27;20043;-80
2022/12/08 11:30:37;;;;;;;3.08;1.00;;;7.80;99.90;;;;;;5121698;27;20062;-80
2022/12/08 11:33:26;;;;;;;;;;;9.00;99.90;;;;;;5120197;27;20039;-81
2022/12/08 11:35:59;;;;;;;1.85;0.63;;;10.30;99.90;;;;;;5119853;27;19977;-80
2022/12/08 11:38:27;;;;;;;3.20;0.73;;;11.20;99.90;;;;;;5117895;27;20049;-81
2022/12/08 11:41:10;;;;;;;2.10;0.65;;;11.80;99.90;;;;;;5119830;27;20070;-81
2022/12/08 11:43:44;;;;;;;5.25;0.70;;;11.70;99.90;;;;;;5121893;27;20043;-80
2022/12/08 11:46:30;;;;;;;12.63;1.00;;;11.90;99.90;;;;;;5121701;27;20066;-81
2022/12/08 11:49:02;;;;;;;4.53;0.60;;;11.90;99.90;;;;;;5115006;27;20051;-81
2022/12/08 11:51:46;;;;;;;3.03;0.80;;;12.30;99.90;;;;;;5120332;27;20107;-81
2022/12/08 11:54:34;;;;;;;1.15;0.40;;;11.50;99.90;;;;;;5119669;27;20055;-80
2022/12/08 11:57:03;;;;;;;3.47;0.50;;;10.20;99.90;;;;;;5122351;27;20035;-80
2022/12/08 11:59:32;;;;;;;2.17;0.50;;;9.00;99.90;;;;;;5122378;27;20369;-80
2022/12/08 12:02:00;;;;;;;1.08;0.30;;;8.00;99.90;;;;;;5121382;27;20042;-80
2022/12/08 12:04:34;;;;;;;1.15;0.50;;;7.50;99.90;;;;;;5104927;27;20046;-80
2022/12/08 12:07:22;;;;;;;1.52;0.50;;;7.10;99.90;;;;;;5117851;27;20552;-80
2022/12/08 12:10:17;;;;;;;1.17;0.35;;;6.70;99.90;;;;;;5119064;27;20113;-80
2022/12/08 12:13:05;;;;;;;1.05;0.30;;;6.60;99.90;;;;;;5119746;27;20399;-80
2022/12/08 12:15:58;;;;;;;0.98;0.30;;;6.70;99.90;;;;;;5116518;27;20041;-81
2022/12/08 12:18:45;;;;;;;2.22;0.40;;;7.20;99.90;;;;;;5100640;27;20117;-81
2022/12/08 12:21:18;;;;;;;1.15;0.20;;;8.50;99.90;;;;;;5103648;27;20386;-80
2022/12/08 12:24:00;;;;;;;1.10;0.45;;;9.60;99.90;;;;;;5115763;27;20072;-81
2022/12/08 12:26:29;;;;;;;3.08;0.40;;;10.20;99.90;;;;;;5102358;27;20055;-81
2022/12/08 12:29:03;;;;;;;0.35;0.30;;;10.50;99.90;;;;;;5118600;27;20502;-81
2022/12/08 12:31:34;;;;;;;0.95;0.30;;;10.30;99.90;;;;;;5120203;27;20056;-81
2022/12/08 12:34:17;;;;;;;1.40;0.40;;;9.70;99.90;;;;;;5118089;27;20035;-81
2022/12/08 12:37:02;;;;;;;0.43;0.20;;;9.10;99.90;;;;;;5118801;27;20054;-80
2022/12/08 12:39:30;;;;;;;2.55;0.40;;;8.50;99.90;;;;;;5118768;27;20035;-80
2022/12/08 12:41:59;;;;;;;3.03;0.68;;;8.10;99.90;;;;;;5096922;27;20041;-80
2022/12/08 12:44:27;;;;;;;0.63;0.50;;;7.90;99.90;;;;;;5121382;27;20046;-80
2022/12/08 12:46:56;;;;;;;1.23;0.35;;;7.80;99.90;;;;;;5117352;27;20070;-80
2022/12/08 12:50:03;;;;;;;1.58;0.40;;;7.60;99.90;;;;;;5118901;27;20043;-81
2022/12/08 12:52:31;;;;;;;0.57;0.30;;;7.40;99.90;;;;;;5108069;27;20056;-80
2022/12/08 12:54:57;;;;;;;1.10;0.30;;;7.30;99.90;;;;;;5124175;27;20084;-80
2022/12/08 12:57:32;;;;;;;0.40;0.30;;;7.20;99.90;;;;;;5119558;27;20039;-80
2022/12/08 13:00:01;;;;;;;1.15;0.30;;;7.20;99.90;;;;;;5099978;27;20066;-80
2022/12/08 13:02:29;;;;;;;1.83;0.40;;;7.10;99.90;;;;;;5120768;27;20039;-79
2022/12/08 13:04:56;;;;;;;4.50;0.63;;;7.00;99.90;;;;;;5102231;27;20074;-80
2022/12/08 13:07:42;;;;;;;0.85;0.45;;;6.90;99.90;;;;;;5118588;27;20039;-80
2022/12/08 13:10:19;;;;;;;4.03;0.73;;;6.70;99.90;;;;;;5118256;27;20065;-80
2022/12/08 13:12:52;;;;;;;;;;;6.40;99.90;;;;;;5118222;27;20117;-80
2022/12/08 13:15:19;;;;;;;0.80;0.40;;;6.30;99.90;;;;;;5103337;27;19915;-81
2022/12/08 13:17:47;;;;;;;1.00;0.50;;;6.20;99.90;;;;;;5120263;27;20043;-81
2022/12/08 13:20:21;;;;;;;2.65;0.50;;;6.20;99.90;;;;;;5102106;27;20423;-80
2022/12/08 13:22:53;;;;;;;0.85;0.40;;;6.10;99.90;;;;;;5115852;27;20043;-81
2022/12/08 13:25:37;;;;;;;2.03;0.55;;;6.10;99.90;;;;;;5116272;27;20039;-81